sensor_id;sensor_type;location;lat;lon;timestamp;P1;durP1;ratioP1;P2;durP2;ratioP2
65605;SDS011;52276;48.906;2.384;2023-04-03T16:11:22;1.44;;;0.32;;
65605;SDS011;52276;48.906;2.384;2023-04-03T16:12:22;1.36;;;0.31;;
65605;SDS011;52276;48.906;2.384;2023-04-03T16:13:22;0.95;;;0.21;;
65605;SDS011;52276;48.906;2.384;2023-04-03T16:14:22;1.24;;;0.42;;
65605;SDS011;52276;48.906;2.384;2023-04-03T16:15:22;1.48;;;0.36;;
65605;SDS011;52276;48.906;2.384;2023-04-03T16:16:22;1.56;;;0.44;;
65605;SDS011;52276;48.906;2.384;2023-04-03T16:17:22;1.11;;;0.34;;
65605;SDS011;52276;48.906;2.384;2023-04-03T16:18:22;1.22;;;0.47;;
65605;SDS011;52276;48.906;2.384;2023-04-03T16:19:22;1.14;;;0.4;;
65605;SDS011;52276;48.906;2.384;2023-04-03T16:20:22;1.13;;;0.36;;
65605;SDS011;52276;48.906;2.384;2023-04-03T16:21:22;1.26;;;0.53;;
65605;SDS011;52276;48.906;2.384;2023-04-03T16:22:22;1.32;;;0.46;;
65605;SDS011;52276;48.906;2.384;2023-04-03T16:23:22;1.18;;;0.48;;
65605;SDS011;52276;48.906;2.384;2023-04-03T16:24:22;1.16;;;0.46;;
65605;SDS011;52276;48.906;2.384;2023-04-03T16:25:22;1.13;;;0.41;;
65605;SDS011;52276;48.906;2.384;2023-04-03T16:26:22;1.16;;;0.5;;
65605;SDS011;52276;48.906;2.384;2023-04-03T16:27:22;1.14;;;0.43;;
65605;SDS011;52276;48.906;2.384;2023-04-03T16:28:22;1.37;;;0.45;;
65605;SDS011;52276;48.906;2.384;2023-04-03T16:29:23;1.19;;;0.47;;
65605;SDS011;52276;48.906;2.384;2023-04-03T16:30:22;1.21;;;0.51;;
65605;SDS011;52276;48.906;2.384;2023-04-03T16:31:22;1.11;;;0.36;;
65605;SDS011;52276;48.906;2.384;2023-04-03T16:32:22;1.19;;;0.46;;
65605;SDS011;52276;48.906;2.384;2023-04-03T16:33:22;1.29;;;0.53;;
65605;SDS011;52276;48.906;2.384;2023-04-03T16:34:22;1.12;;;0.39;;
65605;SDS011;52276;48.906;2.384;2023-04-03T16:35:22;1.14;;;0.44;;
65605;SDS011;52276;48.906;2.384;2023-04-03T16:36:23;1.16;;;0.51;;
65605;SDS011;52276;48.906;2.384;2023-04-03T16:37:22;1.17;;;0.53;;
65605;SDS011;52276;48.906;2.384;2023-04-03T16:38:22;1.13;;;0.44;;
65605;SDS011;52276;48.906;2.384;2023-04-03T16:39:22;1.09;;;0.35;;
65605;SDS011;52276;48.906;2.384;2023-04-03T16:40:22;1.08;;;0.38;;
65605;SDS011;52276;48.906;2.384;2023-04-03T16:41:22;1.31;;;0.29;;
65605;SDS011;52276;48.906;2.384;2023-04-03T16:42:22;1.38;;;0.23;;
65605;SDS011;52276;48.906;2.384;2023-04-03T16:43:22;1;;;0.27;;
65605;SDS011;52276;48.906;2.384;2023-04-03T16:44:22;1.01;;;0.29;;
65605;SDS011;52276;48.906;2.384;2023-04-03T16:45:22;1;;;0.24;;
65605;SDS011;52276;48.906;2.384;2023-04-03T16:46:22;0.89;;;0.15;;
65605;SDS011;52276;48.906;2.384;2023-04-03T16:47:22;1.04;;;0.23;;
65605;SDS011;52276;48.906;2.384;2023-04-03T16:48:22;0.97;;;0.23;;
65605;SDS011;52276;48.906;2.384;2023-04-03T16:49:22;0.91;;;0.18;;
65605;SDS011;52276;48.906;2.384;2023-04-03T16:50:22;0.91;;;0.18;;
65605;SDS011;52276;48.906;2.384;2023-04-03T16:51:22;0.88;;;0.14;;
65605;SDS011;52276;48.906;2.384;2023-04-03T16:52:22;0.88;;;0.1;;
65605;SDS011;52276;48.906;2.384;2023-04-03T16:53:22;0.82;;;0.1;;
65605;SDS011;52276;48.906;2.384;2023-04-03T16:54:22;0.8;;;0.1;;
65605;SDS011;52276;48.906;2.384;2023-04-03T16:55:22;0.76;;;0.1;;
65605;SDS011;52276;48.906;2.384;2023-04-03T16:56:22;0.8;;;0.1;;
65605;SDS011;52276;48.906;2.384;2023-04-03T16:57:22;0.84;;;0.08;;
65605;SDS011;52276;48.906;2.384;2023-04-03T16:58:22;2.86;;;0.14;;
65605;SDS011;52276;48.906;2.384;2023-04-03T16:59:22;0.75;;;0.05;;
65605;SDS011;52276;48.906;2.384;2023-04-03T17:00:22;0.66;;;0.02;;
65605;SDS011;52276;48.906;2.384;2023-04-03T17:01:22;0.61;;;0.02;;
65605;SDS011;52276;48.906;2.384;2023-04-03T17:02:22;0.69;;;0.03;;
65605;SDS011;52276;48.906;2.384;2023-04-03T17:03:22;0.68;;;0;;
65605;SDS011;52276;48.906;2.384;2023-04-03T17:04:22;0.71;;;0.09;;
65605;SDS011;52276;48.906;2.384;2023-04-03T17:05:26;0.63;;;0;;
65605;SDS011;52276;48.906;2.384;2023-04-03T17:06:22;0.63;;;0;;
65605;SDS011;52276;48.906;2.384;2023-04-03T17:07:23;0.7;;;0.05;;
65605;SDS011;52276;48.906;2.384;2023-04-03T17:08:22;0.65;;;0.01;;
65605;SDS011;52276;48.906;2.384;2023-04-03T17:09:22;0.64;;;0.09;;
65605;SDS011;52276;48.906;2.384;2023-04-03T17:10:22;0.61;;;0.02;;
65605;SDS011;52276;48.906;2.384;2023-04-03T17:11:22;0.56;;;0.01;;
65605;SDS011;52276;48.906;2.384;2023-04-03T17:12:22;0.55;;;0;;
65605;SDS011;52276;48.906;2.384;2023-04-03T17:13:22;0.52;;;0;;
65605;SDS011;52276;48.906;2.384;2023-04-03T17:14:23;0.57;;;0;;
65605;SDS011;52276;48.906;2.384;2023-04-03T17:15:22;0.61;;;0;;
65605;SDS011;52276;48.906;2.384;2023-04-03T17:16:22;0.62;;;0;;
65605;SDS011;52276;48.906;2.384;2023-04-03T17:17:23;0.55;;;0;;
65605;SDS011;52276;48.906;2.384;2023-04-03T17:18:22;0.58;;;0;;
65605;SDS011;52276;48.906;2.384;2023-04-03T17:19:22;0.54;;;0;;
65605;SDS011;52276;48.906;2.384;2023-04-03T17:20:22;0.54;;;0;;
65605;SDS011;52276;48.906;2.384;2023-04-03T17:21:22;0.53;;;0;;
65605;SDS011;52276;48.906;2.384;2023-04-03T17:22:22;0.56;;;0.05;;
65605;SDS011;52276;48.906;2.384;2023-04-03T17:23:22;0.5;;;0;;
65605;SDS011;52276;48.906;2.384;2023-04-03T17:24:22;0.46;;;0;;
65605;SDS011;52276;48.906;2.384;2023-04-03T17:25:22;0.48;;;0;;
65605;SDS011;52276;48.906;2.384;2023-04-03T17:26:22;0.5;;;0.02;;
65605;SDS011;52276;48.906;2.384;2023-04-03T17:27:22;0.52;;;0.03;;
65605;SDS011;52276;48.906;2.384;2023-04-03T17:28:22;0.58;;;0.04;;
65605;SDS011;52276;48.906;2.384;2023-04-03T17:29:22;0.71;;;0.11;;
65605;SDS011;52276;48.906;2.384;2023-04-03T17:30:22;0.5;;;0;;
65605;SDS011;52276;48.906;2.384;2023-04-03T17:31:22;0.51;;;0;;
65605;SDS011;52276;48.906;2.384;2023-04-03T17:32:22;0.47;;;0;;
65605;SDS011;52276;48.906;2.384;2023-04-03T17:33:22;0.53;;;0.05;;
65605;SDS011;52276;48.906;2.384;2023-04-03T17:34:23;0.51;;;0;;
65605;SDS011;52276;48.906;2.384;2023-04-03T17:35:22;0.47;;;0;;
65605;SDS011;52276;48.906;2.384;2023-04-03T17:36:22;0.52;;;0.04;;
65605;SDS011;52276;48.906;2.384;2023-04-03T17:37:22;0.51;;;0.01;;
65605;SDS011;52276;48.906;2.384;2023-04-03T17:38:22;0.5;;;0.01;;
65605;SDS011;52276;48.906;2.384;2023-04-03T17:39:22;0.5;;;0.04;;
65605;SDS011;52276;48.906;2.384;2023-04-03T17:40:22;0.55;;;0;;
65605;SDS011;52276;48.906;2.384;2023-04-03T17:41:23;0.5;;;0;;
65605;SDS011;52276;48.906;2.384;2023-04-03T17:42:22;0.47;;;0;;
65605;SDS011;52276;48.906;2.384;2023-04-03T17:43:22;0.44;;;0;;
65605;SDS011;52276;48.906;2.384;2023-04-03T17:44:22;0.69;;;0.05;;
65605;SDS011;52276;48.906;2.384;2023-04-03T17:45:22;0.46;;;0;;
65605;SDS011;52276;48.906;2.384;2023-04-03T17:46:22;0.54;;;0.02;;
65605;SDS011;52276;48.906;2.384;2023-04-03T17:47:22;0.58;;;0.03;;
65605;SDS011;52276;48.906;2.384;2023-04-03T17:48:22;0.79;;;0.02;;
65605;SDS011;52276;48.906;2.384;2023-04-03T17:49:22;0.48;;;0;;
65605;SDS011;52276;48.906;2.384;2023-04-03T17:50:22;0.51;;;0;;
65605;SDS011;52276;48.906;2.384;2023-04-03T17:51:22;0.51;;;0.03;;
65605;SDS011;52276;48.906;2.384;2023-04-03T17:52:22;0.56;;;0.09;;
65605;SDS011;52276;48.906;2.384;2023-04-03T17:53:22;0.47;;;0;;
65605;SDS011;52276;48.906;2.384;2023-04-03T17:54:22;0.44;;;0;;
65605;SDS011;52276;48.906;2.384;2023-04-03T17:55:22;0.44;;;0;;
65605;SDS011;52276;48.906;2.384;2023-04-03T17:56:23;0.49;;;0;;
65605;SDS011;52276;48.906;2.384;2023-04-03T17:57:22;0.39;;;0;;
65605;SDS011;52276;48.906;2.384;2023-04-03T17:58:22;0.42;;;0.05;;
65605;SDS011;52276;48.906;2.384;2023-04-03T17:59:22;0.39;;;0;;
65605;SDS011;52276;48.906;2.384;2023-04-03T18:00:22;0.39;;;0;;
65605;SDS011;52276;48.906;2.384;2023-04-03T18:01:24;0.47;;;0;;
65605;SDS011;52276;48.906;2.384;2023-04-03T18:02:22;0.59;;;0.05;;
65605;SDS011;52276;48.906;2.384;2023-04-03T18:03:22;0.43;;;0;;
65605;SDS011;52276;48.906;2.384;2023-04-03T18:04:22;0.49;;;0;;
65605;SDS011;52276;48.906;2.384;2023-04-03T18:05:25;0.46;;;0;;
65605;SDS011;52276;48.906;2.384;2023-04-03T18:06:25;0.56;;;0;;
65605;SDS011;52276;48.906;2.384;2023-04-03T18:07:23;0.57;;;0.06;;
65605;SDS011;52276;48.906;2.384;2023-04-03T18:08:22;0.6;;;0.05;;
65605;SDS011;52276;48.906;2.384;2023-04-03T18:09:24;0.8;;;0.04;;
65605;SDS011;52276;48.906;2.384;2023-04-03T18:10:22;0.44;;;0;;
65605;SDS011;52276;48.906;2.384;2023-04-03T18:11:24;0.42;;;0;;
65605;SDS011;52276;48.906;2.384;2023-04-03T18:12:22;0.71;;;0.02;;
65605;SDS011;52276;48.906;2.384;2023-04-03T18:13:22;0.77;;;0.03;;
65605;SDS011;52276;48.906;2.384;2023-04-03T18:14:22;0.44;;;0;;
65605;SDS011;52276;48.906;2.384;2023-04-03T18:15:27;0.49;;;0;;
65605;SDS011;52276;48.906;2.384;2023-04-03T18:16:22;0.53;;;0.05;;
65605;SDS011;52276;48.906;2.384;2023-04-03T18:17:22;0.69;;;0.05;;
65605;SDS011;52276;48.906;2.384;2023-04-03T18:18:22;0.46;;;0.03;;
65605;SDS011;52276;48.906;2.384;2023-04-03T18:19:22;0.41;;;0;;
65605;SDS011;52276;48.906;2.384;2023-04-03T18:20:22;0.46;;;0.03;;
65605;SDS011;52276;48.906;2.384;2023-04-03T18:21:22;0.45;;;0;;
65605;SDS011;52276;48.906;2.384;2023-04-03T18:22:22;0.45;;;0;;
65605;SDS011;52276;48.906;2.384;2023-04-03T18:23:22;0.42;;;0;;
65605;SDS011;52276;48.906;2.384;2023-04-03T18:24:22;0.36;;;0;;
65605;SDS011;52276;48.906;2.384;2023-04-03T18:25:22;0.53;;;0.05;;
65605;SDS011;52276;48.906;2.384;2023-04-03T18:26:23;0.59;;;0.08;;
65605;SDS011;52276;48.906;2.384;2023-04-03T18:27:24;0.51;;;0;;
65605;SDS011;52276;48.906;2.384;2023-04-03T18:28:22;0.8;;;0.07;;
65605;SDS011;52276;48.906;2.384;2023-04-03T18:29:22;0.53;;;0.03;;
65605;SDS011;52276;48.906;2.384;2023-04-03T18:30:22;0.49;;;0;;
65605;SDS011;52276;48.906;2.384;2023-04-03T18:31:22;0.72;;;0.15;;
65605;SDS011;52276;48.906;2.384;2023-04-03T18:32:22;0.45;;;0;;
65605;SDS011;52276;48.906;2.384;2023-04-03T18:33:22;0.42;;;0;;
65605;SDS011;52276;48.906;2.384;2023-04-03T18:34:22;0.4;;;0;;
65605;SDS011;52276;48.906;2.384;2023-04-03T18:35:22;0.45;;;0;;
65605;SDS011;52276;48.906;2.384;2023-04-03T18:36:22;0.4;;;0;;
65605;SDS011;52276;48.906;2.384;2023-04-03T18:37:23;0.49;;;0.01;;
65605;SDS011;52276;48.906;2.384;2023-04-03T18:38:22;0.81;;;0.04;;
65605;SDS011;52276;48.906;2.384;2023-04-03T18:39:22;0.49;;;0;;
65605;SDS011;52276;48.906;2.384;2023-04-03T18:40:22;0.44;;;0.05;;
65605;SDS011;52276;48.906;2.384;2023-04-03T18:41:23;0.44;;;0;;
65605;SDS011;52276;48.906;2.384;2023-04-03T18:42:23;0.43;;;0;;
65605;SDS011;52276;48.906;2.384;2023-04-03T18:43:23;0.44;;;0;;
65605;SDS011;52276;48.906;2.384;2023-04-03T18:44:22;0.44;;;0;;
65605;SDS011;52276;48.906;2.384;2023-04-03T18:45:29;0.53;;;0.02;;
65605;SDS011;52276;48.906;2.384;2023-04-03T18:46:22;0.55;;;0.03;;
65605;SDS011;52276;48.906;2.384;2023-04-03T18:47:22;0.54;;;0.05;;
65605;SDS011;52276;48.906;2.384;2023-04-03T18:48:22;0.64;;;0.11;;
65605;SDS011;52276;48.906;2.384;2023-04-03T18:49:22;0.4;;;0;;
65605;SDS011;52276;48.906;2.384;2023-04-03T18:50:22;0.54;;;0;;
65605;SDS011;52276;48.906;2.384;2023-04-03T18:51:22;0.48;;;0;;
65605;SDS011;52276;48.906;2.384;2023-04-03T18:52:22;0.41;;;0;;
65605;SDS011;52276;48.906;2.384;2023-04-03T18:53:22;0.95;;;0.1;;
65605;SDS011;52276;48.906;2.384;2023-04-03T18:54:22;0.66;;;0.15;;
65605;SDS011;52276;48.906;2.384;2023-04-03T18:55:22;0.46;;;0;;
65605;SDS011;52276;48.906;2.384;2023-04-03T18:56:22;0.92;;;0.16;;
65605;SDS011;52276;48.906;2.384;2023-04-03T18:57:22;0.51;;;0.05;;
65605;SDS011;52276;48.906;2.384;2023-04-03T18:58:22;0.42;;;0;;
65605;SDS011;52276;48.906;2.384;2023-04-03T18:59:22;0.41;;;0;;
65605;SDS011;52276;48.906;2.384;2023-04-03T19:00:22;0.49;;;0.05;;
65605;SDS011;52276;48.906;2.384;2023-04-03T19:01:22;0.64;;;0.09;;
65605;SDS011;52276;48.906;2.384;2023-04-03T19:02:23;0.44;;;0.01;;
65605;SDS011;52276;48.906;2.384;2023-04-03T19:03:22;0.47;;;0;;
65605;SDS011;52276;48.906;2.384;2023-04-03T19:04:22;1.14;;;0.04;;
65605;SDS011;52276;48.906;2.384;2023-04-03T19:05:22;0.63;;;0.01;;
65605;SDS011;52276;48.906;2.384;2023-04-03T19:06:22;0.46;;;0;;
65605;SDS011;52276;48.906;2.384;2023-04-03T19:07:22;0.47;;;0.02;;
65605;SDS011;52276;48.906;2.384;2023-04-03T19:08:22;0.44;;;0.04;;
65605;SDS011;52276;48.906;2.384;2023-04-03T19:09:23;0.4;;;0;;
65605;SDS011;52276;48.906;2.384;2023-04-03T19:10:22;0.41;;;0;;
65605;SDS011;52276;48.906;2.384;2023-04-03T19:11:22;0.49;;;0.02;;
65605;SDS011;52276;48.906;2.384;2023-04-03T19:12:22;0.48;;;0.03;;
65605;SDS011;52276;48.906;2.384;2023-04-03T19:13:22;0.46;;;0;;
65605;SDS011;52276;48.906;2.384;2023-04-03T19:14:22;0.53;;;0;;
65605;SDS011;52276;48.906;2.384;2023-04-03T19:15:22;0.65;;;0.08;;
65605;SDS011;52276;48.906;2.384;2023-04-03T19:16:22;0.5;;;0.02;;
65605;SDS011;52276;48.906;2.384;2023-04-03T19:17:22;0.55;;;0.05;;
65605;SDS011;52276;48.906;2.384;2023-04-03T19:18:22;0.52;;;0.05;;
65605;SDS011;52276;48.906;2.384;2023-04-03T19:19:22;0.57;;;0.06;;
65605;SDS011;52276;48.906;2.384;2023-04-03T19:20:22;0.62;;;0.07;;
65605;SDS011;52276;48.906;2.384;2023-04-03T19:21:22;0.51;;;0.05;;
65605;SDS011;52276;48.906;2.384;2023-04-03T19:22:22;0.45;;;0.1;;
65605;SDS011;52276;48.906;2.384;2023-04-03T19:23:23;0.5;;;0;;
65605;SDS011;52276;48.906;2.384;2023-04-03T19:24:22;0.49;;;0;;
65605;SDS011;52276;48.906;2.384;2023-04-03T19:25:22;0.61;;;0.07;;
65605;SDS011;52276;48.906;2.384;2023-04-03T19:26:22;0.48;;;0.03;;
65605;SDS011;52276;48.906;2.384;2023-04-03T19:27:22;0.45;;;0;;
65605;SDS011;52276;48.906;2.384;2023-04-03T19:28:22;0.38;;;0;;
65605;SDS011;52276;48.906;2.384;2023-04-03T19:29:22;0.54;;;0.1;;
65605;SDS011;52276;48.906;2.384;2023-04-03T19:30:23;0.46;;;0;;
65605;SDS011;52276;48.906;2.384;2023-04-03T19:31:22;2.19;;;0.05;;
65605;SDS011;52276;48.906;2.384;2023-04-03T19:32:22;1.54;;;0.02;;
65605;SDS011;52276;48.906;2.384;2023-04-03T19:33:22;0.55;;;0.05;;
65605;SDS011;52276;48.906;2.384;2023-04-03T19:34:22;0.74;;;0.15;;
65605;SDS011;52276;48.906;2.384;2023-04-03T19:35:22;0.5;;;0;;
65605;SDS011;52276;48.906;2.384;2023-04-03T19:36:22;0.44;;;0;;
65605;SDS011;52276;48.906;2.384;2023-04-03T19:37:22;0.48;;;0.02;;
65605;SDS011;52276;48.906;2.384;2023-04-03T19:38:22;0.53;;;0.03;;
65605;SDS011;52276;48.906;2.384;2023-04-03T19:39:22;0.49;;;0.04;;
65605;SDS011;52276;48.906;2.384;2023-04-03T19:40:22;0.45;;;0.04;;
65605;SDS011;52276;48.906;2.384;2023-04-03T19:41:23;0.39;;;0;;
65605;SDS011;52276;48.906;2.384;2023-04-03T19:42:22;0.41;;;0;;
65605;SDS011;52276;48.906;2.384;2023-04-03T19:43:22;0.54;;;0.06;;
65605;SDS011;52276;48.906;2.384;2023-04-03T19:44:22;0.37;;;0;;
65605;SDS011;52276;48.906;2.384;2023-04-03T19:45:22;0.4;;;0;;
65605;SDS011;52276;48.906;2.384;2023-04-03T19:46:22;0.69;;;0.03;;
65605;SDS011;52276;48.906;2.384;2023-04-03T19:47:22;0.37;;;0;;
65605;SDS011;52276;48.906;2.384;2023-04-03T19:48:23;0.54;;;0.08;;
65605;SDS011;52276;48.906;2.384;2023-04-03T19:49:22;0.49;;;0.05;;
65605;SDS011;52276;48.906;2.384;2023-04-03T19:50:22;0.49;;;0.04;;
65605;SDS011;52276;48.906;2.384;2023-04-03T19:51:22;0.57;;;0.04;;
65605;SDS011;52276;48.906;2.384;2023-04-03T19:52:22;0.44;;;0;;
65605;SDS011;52276;48.906;2.384;2023-04-03T19:53:22;0.38;;;0;;
65605;SDS011;52276;48.906;2.384;2023-04-03T19:54:22;0.45;;;0;;
65605;SDS011;52276;48.906;2.384;2023-04-03T19:55:22;0.55;;;0.05;;
65605;SDS011;52276;48.906;2.384;2023-04-03T19:56:22;0.48;;;0.04;;
65605;SDS011;52276;48.906;2.384;2023-04-03T19:57:22;0.57;;;0.04;;
65605;SDS011;52276;48.906;2.384;2023-04-03T19:58:23;0.46;;;0;;
65605;SDS011;52276;48.906;2.384;2023-04-03T19:59:22;0.45;;;0;;
65605;SDS011;52276;48.906;2.384;2023-04-03T20:00:22;1.04;;;0.25;;
65605;SDS011;52276;48.906;2.384;2023-04-03T20:01:22;0.51;;;0.01;;
65605;SDS011;52276;48.906;2.384;2023-04-03T20:02:22;0.57;;;0.04;;
65605;SDS011;52276;48.906;2.384;2023-04-03T20:03:22;0.49;;;0.01;;
65605;SDS011;52276;48.906;2.384;2023-04-03T20:04:22;0.55;;;0.09;;
65605;SDS011;52276;48.906;2.384;2023-04-03T20:05:22;0.47;;;0.02;;
65605;SDS011;52276;48.906;2.384;2023-04-03T20:06:22;0.47;;;0;;
65605;SDS011;52276;48.906;2.384;2023-04-03T20:07:22;0.56;;;0.07;;
65605;SDS011;52276;48.906;2.384;2023-04-03T20:08:22;1.06;;;0.19;;
65605;SDS011;52276;48.906;2.384;2023-04-03T20:09:22;0.46;;;0.05;;
65605;SDS011;52276;48.906;2.384;2023-04-03T20:10:22;0.42;;;0;;
65605;SDS011;52276;48.906;2.384;2023-04-03T20:11:22;0.43;;;0;;
65605;SDS011;52276;48.906;2.384;2023-04-03T20:12:22;0.43;;;0;;
65605;SDS011;52276;48.906;2.384;2023-04-03T20:13:22;0.52;;;0.05;;
65605;SDS011;52276;48.906;2.384;2023-04-03T20:14:22;0.46;;;0;;
65605;SDS011;52276;48.906;2.384;2023-04-03T20:15:22;0.44;;;0;;
65605;SDS011;52276;48.906;2.384;2023-04-03T20:16:22;0.48;;;0;;
65605;SDS011;52276;48.906;2.384;2023-04-03T20:17:22;0.45;;;0;;
65605;SDS011;52276;48.906;2.384;2023-04-03T20:18:22;0.44;;;0.04;;
65605;SDS011;52276;48.906;2.384;2023-04-03T20:19:22;0.42;;;0;;
65605;SDS011;52276;48.906;2.384;2023-04-03T20:20:22;0.39;;;0;;
65605;SDS011;52276;48.906;2.384;2023-04-03T20:21:25;0.54;;;0.06;;
65605;SDS011;52276;48.906;2.384;2023-04-03T20:22:22;0.46;;;0.04;;
65605;SDS011;52276;48.906;2.384;2023-04-03T20:23:22;0.43;;;0.02;;
65605;SDS011;52276;48.906;2.384;2023-04-03T20:24:22;0.49;;;0.03;;
65605;SDS011;52276;48.906;2.384;2023-04-03T20:25:22;0.4;;;0;;
65605;SDS011;52276;48.906;2.384;2023-04-03T20:26:23;0.43;;;0;;
65605;SDS011;52276;48.906;2.384;2023-04-03T20:27:22;0.45;;;0.05;;
65605;SDS011;52276;48.906;2.384;2023-04-03T20:28:22;0.41;;;0;;
65605;SDS011;52276;48.906;2.384;2023-04-03T20:29:22;0.58;;;0.09;;
65605;SDS011;52276;48.906;2.384;2023-04-03T20:30:22;0.5;;;0.06;;
65605;SDS011;52276;48.906;2.384;2023-04-03T20:31:23;0.36;;;0;;
65605;SDS011;52276;48.906;2.384;2023-04-03T20:32:22;0.4;;;0;;
65605;SDS011;52276;48.906;2.384;2023-04-03T20:33:22;0.39;;;0;;
65605;SDS011;52276;48.906;2.384;2023-04-03T20:34:22;0.48;;;0.05;;
65605;SDS011;52276;48.906;2.384;2023-04-03T20:35:22;0.39;;;0;;
65605;SDS011;52276;48.906;2.384;2023-04-03T20:36:22;0.46;;;0.05;;
65605;SDS011;52276;48.906;2.384;2023-04-03T20:37:22;0.43;;;0;;
65605;SDS011;52276;48.906;2.384;2023-04-03T20:38:22;0.44;;;0;;
65605;SDS011;52276;48.906;2.384;2023-04-03T20:39:22;0.41;;;0;;
65605;SDS011;52276;48.906;2.384;2023-04-03T20:40:24;0.44;;;0.03;;
65605;SDS011;52276;48.906;2.384;2023-04-03T20:41:22;0.69;;;0.1;;
65605;SDS011;52276;48.906;2.384;2023-04-03T20:42:22;0.68;;;0.1;;
65605;SDS011;52276;48.906;2.384;2023-04-03T20:43:23;0.46;;;0;;
65605;SDS011;52276;48.906;2.384;2023-04-03T20:44:22;0.49;;;0;;
65605;SDS011;52276;48.906;2.384;2023-04-03T20:45:22;0.42;;;0;;
65605;SDS011;52276;48.906;2.384;2023-04-03T20:46:22;0.43;;;0;;
65605;SDS011;52276;48.906;2.384;2023-04-03T20:47:22;0.47;;;0;;
65605;SDS011;52276;48.906;2.384;2023-04-03T20:48:22;0.55;;;0.05;;
65605;SDS011;52276;48.906;2.384;2023-04-03T20:49:22;0.39;;;0;;
65605;SDS011;52276;48.906;2.384;2023-04-03T20:50:22;0.42;;;0;;
65605;SDS011;52276;48.906;2.384;2023-04-03T20:51:22;0.77;;;0.01;;
65605;SDS011;52276;48.906;2.384;2023-04-03T20:52:22;0.86;;;0.02;;
65605;SDS011;52276;48.906;2.384;2023-04-03T20:53:22;0.47;;;0.03;;
65605;SDS011;52276;48.906;2.384;2023-04-03T20:54:37;0.4;;;0;;
65605;SDS011;52276;48.906;2.384;2023-04-03T20:55:22;0.49;;;0;;
65605;SDS011;52276;48.906;2.384;2023-04-03T20:56:22;0.42;;;0;;
65605;SDS011;52276;48.906;2.384;2023-04-03T20:57:23;0.45;;;0;;
65605;SDS011;52276;48.906;2.384;2023-04-03T20:58:22;0.7;;;0.05;;
65605;SDS011;52276;48.906;2.384;2023-04-03T20:59:22;0.43;;;0;;
65605;SDS011;52276;48.906;2.384;2023-04-03T21:00:22;0.42;;;0;;
65605;SDS011;52276;48.906;2.384;2023-04-03T21:01:22;0.51;;;0.01;;
65605;SDS011;52276;48.906;2.384;2023-04-03T21:02:22;0.43;;;0;;
65605;SDS011;52276;48.906;2.384;2023-04-03T21:03:22;0.41;;;0;;
65605;SDS011;52276;48.906;2.384;2023-04-03T21:04:26;1.22;;;0.03;;
65605;SDS011;52276;48.906;2.384;2023-04-03T21:05:22;0.46;;;0;;
65605;SDS011;52276;48.906;2.384;2023-04-03T21:19:23;0.39;;;0.01;;
65605;SDS011;52276;48.906;2.384;2023-04-03T21:20:23;0.35;;;0;;
65605;SDS011;52276;48.906;2.384;2023-04-03T21:21:23;0.37;;;0;;
65605;SDS011;52276;48.906;2.384;2023-04-03T21:22:23;0.4;;;0;;
65605;SDS011;52276;48.906;2.384;2023-04-03T21:23:24;0.42;;;0.03;;
65605;SDS011;52276;48.906;2.384;2023-04-03T21:24:23;0.48;;;0;;
65605;SDS011;52276;48.906;2.384;2023-04-03T21:25:23;0.44;;;0;;
65605;SDS011;52276;48.906;2.384;2023-04-03T21:26:24;0.52;;;0.04;;
65605;SDS011;52276;48.906;2.384;2023-04-03T21:27:23;0.51;;;0.03;;
65605;SDS011;52276;48.906;2.384;2023-04-03T21:28:23;0.63;;;0.05;;
65605;SDS011;52276;48.906;2.384;2023-04-03T21:29:23;0.83;;;0.08;;
65605;SDS011;52276;48.906;2.384;2023-04-03T21:30:23;0.76;;;0.02;;
65605;SDS011;52276;48.906;2.384;2023-04-03T21:31:23;0.52;;;0.05;;
65605;SDS011;52276;48.906;2.384;2023-04-03T21:32:23;0.46;;;0;;
65605;SDS011;52276;48.906;2.384;2023-04-03T21:33:23;0.48;;;0.01;;
65605;SDS011;52276;48.906;2.384;2023-04-03T21:34:23;0.44;;;0;;
65605;SDS011;52276;48.906;2.384;2023-04-03T21:35:22;0.44;;;0;;
65605;SDS011;52276;48.906;2.384;2023-04-03T21:36:22;0.37;;;0;;
65605;SDS011;52276;48.906;2.384;2023-04-03T21:37:22;0.64;;;0.04;;
65605;SDS011;52276;48.906;2.384;2023-04-03T21:38:23;0.47;;;0.01;;
65605;SDS011;52276;48.906;2.384;2023-04-03T21:39:22;0.51;;;0;;
65605;SDS011;52276;48.906;2.384;2023-04-03T21:40:22;0.46;;;0.02;;
65605;SDS011;52276;48.906;2.384;2023-04-03T21:41:22;0.61;;;0.06;;
65605;SDS011;52276;48.906;2.384;2023-04-03T21:42:22;0.46;;;0;;
65605;SDS011;52276;48.906;2.384;2023-04-03T21:43:22;0.54;;;0.1;;
65605;SDS011;52276;48.906;2.384;2023-04-03T21:44:22;0.45;;;0.05;;
65605;SDS011;52276;48.906;2.384;2023-04-03T21:45:22;0.38;;;0;;
65605;SDS011;52276;48.906;2.384;2023-04-03T21:46:22;0.5;;;0.02;;
65605;SDS011;52276;48.906;2.384;2023-04-03T21:47:22;0.58;;;0.05;;
65605;SDS011;52276;48.906;2.384;2023-04-03T21:48:22;0.35;;;0;;
65605;SDS011;52276;48.906;2.384;2023-04-03T21:49:23;0.4;;;0.01;;
65605;SDS011;52276;48.906;2.384;2023-04-03T21:50:22;0.75;;;0.09;;
65605;SDS011;52276;48.906;2.384;2023-04-03T21:51:22;1.12;;;0.11;;
65605;SDS011;52276;48.906;2.384;2023-04-03T21:52:22;0.46;;;0;;
65605;SDS011;52276;48.906;2.384;2023-04-03T21:53:23;0.49;;;0.01;;
65605;SDS011;52276;48.906;2.384;2023-04-03T21:54:23;0.58;;;0.09;;
65605;SDS011;52276;48.906;2.384;2023-04-03T21:55:22;0.41;;;0.02;;
65605;SDS011;52276;48.906;2.384;2023-04-03T21:56:22;0.47;;;0.01;;
65605;SDS011;52276;48.906;2.384;2023-04-03T21:57:22;0.72;;;0.04;;
65605;SDS011;52276;48.906;2.384;2023-04-03T21:58:26;1.46;;;0.23;;
65605;SDS011;52276;48.906;2.384;2023-04-03T21:59:22;0.52;;;0.05;;
65605;SDS011;52276;48.906;2.384;2023-04-03T22:00:22;0.49;;;0.05;;
65605;SDS011;52276;48.906;2.384;2023-04-03T22:01:22;0.38;;;0;;
65605;SDS011;52276;48.906;2.384;2023-04-03T22:02:22;0.44;;;0.01;;
65605;SDS011;52276;48.906;2.384;2023-04-03T22:03:22;0.52;;;0.04;;
65605;SDS011;52276;48.906;2.384;2023-04-03T22:04:22;1.93;;;0.15;;
65605;SDS011;52276;48.906;2.384;2023-04-03T22:05:22;0.45;;;0;;
65605;SDS011;52276;48.906;2.384;2023-04-03T22:06:23;0.45;;;0;;
65605;SDS011;52276;48.906;2.384;2023-04-03T22:07:22;0.48;;;0;;
65605;SDS011;52276;48.906;2.384;2023-04-03T22:08:22;0.47;;;0.05;;
65605;SDS011;52276;48.906;2.384;2023-04-03T22:09:22;0.43;;;0;;
65605;SDS011;52276;48.906;2.384;2023-04-03T22:10:22;0.53;;;0.09;;
65605;SDS011;52276;48.906;2.384;2023-04-03T22:11:22;0.37;;;0.01;;
65605;SDS011;52276;48.906;2.384;2023-04-03T22:12:22;0.58;;;0.07;;
65605;SDS011;52276;48.906;2.384;2023-04-03T22:13:22;0.94;;;0.09;;
65605;SDS011;52276;48.906;2.384;2023-04-03T22:14:22;0.69;;;0.06;;
65605;SDS011;52276;48.906;2.384;2023-04-03T22:15:22;0.49;;;0.05;;
65605;SDS011;52276;48.906;2.384;2023-04-03T22:16:22;0.51;;;0.08;;
65605;SDS011;52276;48.906;2.384;2023-04-03T22:17:22;0.45;;;0;;
65605;SDS011;52276;48.906;2.384;2023-04-03T22:18:22;0.51;;;0.04;;
65605;SDS011;52276;48.906;2.384;2023-04-03T22:19:22;0.56;;;0.11;;
65605;SDS011;52276;48.906;2.384;2023-04-03T22:20:22;0.51;;;0.02;;
65605;SDS011;52276;48.906;2.384;2023-04-03T22:21:22;0.45;;;0;;
65605;SDS011;52276;48.906;2.384;2023-04-03T22:22:26;0.46;;;0;;
65605;SDS011;52276;48.906;2.384;2023-04-03T22:23:22;0.52;;;0.1;;
65605;SDS011;52276;48.906;2.384;2023-04-03T22:24:22;0.49;;;0.04;;
65605;SDS011;52276;48.906;2.384;2023-04-03T22:25:22;0.42;;;0.01;;
65605;SDS011;52276;48.906;2.384;2023-04-03T22:26:22;0.81;;;0.05;;
65605;SDS011;52276;48.906;2.384;2023-04-03T22:27:22;0.47;;;0;;
65605;SDS011;52276;48.906;2.384;2023-04-03T22:28:22;0.4;;;0;;
65605;SDS011;52276;48.906;2.384;2023-04-03T22:29:22;0.54;;;0.03;;
65605;SDS011;52276;48.906;2.384;2023-04-03T22:30:22;0.48;;;0.03;;
65605;SDS011;52276;48.906;2.384;2023-04-03T22:31:22;0.54;;;0.04;;
65605;SDS011;52276;48.906;2.384;2023-04-03T22:32:22;0.53;;;0.04;;
65605;SDS011;52276;48.906;2.384;2023-04-03T22:33:22;0.5;;;0;;